Time;durP1;ratioP1;P1;durP2;ratioP2;P2;SDS_P1;SDS_P2;PMS_P1;PMS_P2;Temp;Humidity;BMP_temperature;BMP_pressure;BME280_temperature;BME280_humidity;BME280_pressure;Samples;Min_cycle;Max_cycle;Signal;HPM_P1;HPM_P2
2022/01/09 00:01:22;;;;;;;6.47;3.90;;;;;;;;;;2353158;53;21110;-80
2022/01/09 00:03:49;;;;;;;8.95;4.00;;;;;;;;;;2360251;53;21352;-81
2022/01/09 00:06:16;;;;;;;8.52;4.15;;;;;;;;;;2350259;57;21045;-80
2022/01/09 00:08:44;;;;;;;9.70;4.57;;;;;;;;;;2350973;57;21142;-83
2022/01/09 00:11:11;;;;;;;7.07;3.95;;;;;;;;;;2350614;55;21117;-80
2022/01/09 00:13:38;;;;;;;7.65;4.25;;;;;;;;;;2351201;57;21129;-79
2022/01/09 00:16:05;;;;;;;6.22;3.90;;;;;;;;;;2351579;57;21109;-82
2022/01/09 00:18:32;;;;;;;8.02;4.37;;;;;;;;;;2351454;57;21578;-80
2022/01/09 00:21:05;;;;;;;9.35;4.72;;;;;;;;;;2352166;53;21102;-81
2022/01/09 00:23:33;;;;;;;7.95;4.40;;;;;;;;;;2351501;57;21118;-81
2022/01/09 00:26:00;;;;;;;6.95;4.00;;;;;;;;;;2351528;57;21104;-80
2022/01/09 00:28:27;;;;;;;8.27;3.58;;;;;;;;;;2351195;57;21034;-79
2022/01/09 00:30:54;;;;;;;8.80;4.35;;;;;;;;;;2350383;57;21142;-80
2022/01/09 00:33:22;;;;;;;6.37;4.50;;;;;;;;;;2350865;57;21034;-81
2022/01/09 00:35:50;;;;;;;10.23;4.60;;;;;;;;;;2350814;57;21105;-80
2022/01/09 00:38:17;;;;;;;8.80;4.40;;;;;;;;;;2354506;53;21133;-82
2022/01/09 00:40:44;;;;;;;10.35;4.72;;;;;;;;;;2351151;53;21637;-81
2022/01/09 00:43:11;;;;;;;7.28;4.28;;;;;;;;;;2350883;57;21090;-80
2022/01/09 00:45:38;;;;;;;8.75;4.82;;;;;;;;;;2350064;57;21057;-80
2022/01/09 00:48:06;;;;;;;6.85;4.15;;;;;;;;;;2350716;57;21128;-80
2022/01/09 00:50:36;;;;;;;7.72;4.82;;;;;;;;;;2350440;57;21118;-82
2022/01/09 00:53:03;;;;;;;7.85;4.30;;;;;;;;;;2350341;57;21043;-82
2022/01/09 00:55:30;;;;;;;9.25;4.87;;;;;;;;;;2353672;53;21122;-81
2022/01/09 00:57:57;;;;;;;7.85;4.07;;;;;;;;;;2365814;53;21444;-82
2022/01/09 01:00:24;;;;;;;7.55;3.97;;;;;;;;;;2350502;57;21165;-80
2022/01/09 01:02:51;;;;;;;6.75;3.60;;;;;;;;;;2359640;53;21121;-79
2022/01/09 01:05:18;;;;;;;10.57;4.15;;;;;;;;;;2350637;57;22219;-80
2022/01/09 01:07:45;;;;;;;7.85;4.50;;;;;;;;;;2357962;52;21130;-81
2022/01/09 01:10:13;;;;;;;4.87;3.80;;;;;;;;;;2350850;57;21129;-82
2022/01/09 01:12:40;;;;;;;10.75;4.47;;;;;;;;;;2351302;57;21061;-80
2022/01/09 01:15:08;;;;;;;5.68;4.18;;;;;;;;;;2350780;57;21094;-80
2022/01/09 01:17:36;;;;;;;7.95;4.22;;;;;;;;;;2351089;57;21050;-80
2022/01/09 01:20:03;;;;;;;8.05;4.07;;;;;;;;;;2351248;57;21609;-82
2022/01/09 01:22:31;;;;;;;6.85;3.95;;;;;;;;;;2356478;53;21129;-80
2022/01/09 01:24:58;;;;;;;7.25;4.62;;;;;;;;;;2367146;53;21046;-81
2022/01/09 01:27:27;;;;;;;7.90;4.65;;;;;;;;;;2363251;53;21612;-82
2022/01/09 01:29:55;;;;;;;9.13;4.57;;;;;;;;;;2351125;57;21150;-81
2022/01/09 01:32:22;;;;;;;8.95;4.55;;;;;;;;;;2350939;57;21689;-80
2022/01/09 01:34:49;;;;;;;8.68;4.72;;;;;;;;;;2380126;52;21121;-82
2022/01/09 01:37:16;;;;;;;7.25;4.07;;;;;;;;;;2388298;53;21078;-81
2022/01/09 01:39:43;;;;;;;8.50;4.45;;;;;;;;;;2357119;53;21117;-82
2022/01/09 01:42:10;;;;;;;7.78;4.50;;;;;;;;;;2351047;57;21053;-80
2022/01/09 01:44:41;;;;;;;10.77;4.50;;;;;;;;;;2369981;53;21062;-81
2022/01/09 01:47:08;;;;;;;7.32;5.05;;;;;;;;;;2362376;53;21070;-81
2022/01/09 01:49:35;;;;;;;5.70;4.20;;;;;;;;;;2350967;54;21066;-83
2022/01/09 01:52:02;;;;;;;9.68;4.37;;;;;;;;;;2355000;54;21097;-81
2022/01/09 01:54:32;;;;;;;5.05;3.62;;;;;;;;;;2356362;53;21211;-80
2022/01/09 01:56:59;;;;;;;6.57;4.45;;;;;;;;;;2352581;53;21077;-81
2022/01/09 01:59:26;;;;;;;7.95;4.25;;;;;;;;;;2355652;53;21107;-80
2022/01/09 02:01:53;;;;;;;9.18;4.45;;;;;;;;;;2356925;53;21072;-80
2022/01/09 02:04:20;;;;;;;6.78;4.32;;;;;;;;;;2350563;57;21054;-82
2022/01/09 02:06:47;;;;;;;10.45;4.90;;;;;;;;;;2357972;53;21125;-80
2022/01/09 02:09:14;;;;;;;7.70;4.00;;;;;;;;;;2349822;57;21749;-81
2022/01/09 02:11:41;;;;;;;6.85;3.60;;;;;;;;;;2350838;57;21068;-80
2022/01/09 02:14:08;;;;;;;8.30;4.37;;;;;;;;;;2350126;57;21047;-82
2022/01/09 02:16:39;;;;;;;8.68;4.53;;;;;;;;;;2350358;57;21081;-81
2022/01/09 02:19:08;;;;;;;7.60;3.95;;;;;;;;;;2354436;53;21134;-81
2022/01/09 02:21:35;;;;;;;6.28;4.03;;;;;;;;;;2350807;57;21038;-81
2022/01/09 02:24:02;;;;;;;7.28;4.15;;;;;;;;;;2357780;53;21046;-82
2022/01/09 02:26:29;;;;;;;7.15;4.32;;;;;;;;;;2350861;57;21062;-80
2022/01/09 02:28:56;;;;;;;6.12;4.05;;;;;;;;;;2350328;57;21134;-81
2022/01/09 02:31:24;;;;;;;9.02;4.53;;;;;;;;;;2351635;53;21066;-82
2022/01/09 02:33:51;;;;;;;6.00;4.10;;;;;;;;;;2350809;57;21078;-81
2022/01/09 02:36:18;;;;;;;10.93;5.50;;;;;;;;;;2353502;53;21070;-81
2022/01/09 02:38:45;;;;;;;10.13;4.68;;;;;;;;;;2368481;53;21062;-79
2022/01/09 02:41:12;;;;;;;7.65;4.72;;;;;;;;;;2351439;57;21050;-81
2022/01/09 02:43:39;;;;;;;7.93;4.87;;;;;;;;;;2351653;57;21209;-81
2022/01/09 02:46:14;;;;;;;7.57;4.43;;;;;;;;;;2376713;53;21129;-81
2022/01/09 02:48:41;;;;;;;7.05;3.70;;;;;;;;;;2351704;57;21132;-78
2022/01/09 02:51:12;;;;;;;7.40;3.97;;;;;;;;;;2351269;57;21146;-81
2022/01/09 02:53:40;;;;;;;10.65;4.80;;;;;;;;;;2351429;57;21176;-80
2022/01/09 02:56:08;;;;;;;8.13;4.65;;;;;;;;;;2351348;57;21735;-79
2022/01/09 02:58:37;;;;;;;11.52;5.28;;;;;;;;;;2351527;57;21113;-81
2022/01/09 03:01:05;;;;;;;12.77;4.75;;;;;;;;;;2351455;53;21054;-81
2022/01/09 03:03:32;;;;;;;8.10;4.72;;;;;;;;;;2355659;53;21137;-82
2022/01/09 03:05:59;;;;;;;5.85;4.47;;;;;;;;;;2351565;57;21184;-80
2022/01/09 03:08:26;;;;;;;7.90;4.55;;;;;;;;;;2351506;57;21126;-81
2022/01/09 03:10:53;;;;;;;7.97;4.70;;;;;;;;;;2356620;53;21026;-80
2022/01/09 03:13:20;;;;;;;7.75;5.32;;;;;;;;;;2354166;53;21136;-82
2022/01/09 03:15:47;;;;;;;11.80;5.20;;;;;;;;;;2351610;55;21057;-81
2022/01/09 03:18:14;;;;;;;8.02;4.72;;;;;;;;;;2351498;57;21129;-80
2022/01/09 03:20:41;;;;;;;9.50;4.97;;;;;;;;;;2351040;57;21062;-80
2022/01/09 03:23:08;;;;;;;18.75;5.75;;;;;;;;;;2351540;53;21050;-79
2022/01/09 03:25:35;;;;;;;7.97;4.37;;;;;;;;;;2351292;57;21055;-81
2022/01/09 03:28:02;;;;;;;10.75;5.53;;;;;;;;;;2351525;57;21375;-80
2022/01/09 03:30:30;;;;;;;89.47;13.65;;;;;;;;;;2351408;57;21030;-81
2022/01/09 03:32:57;;;;;;;13.20;5.60;;;;;;;;;;2351605;57;21078;-81
2022/01/09 03:35:25;;;;;;;13.05;6.05;;;;;;;;;;2351307;54;21042;-80
2022/01/09 03:37:52;;;;;;;8.48;5.53;;;;;;;;;;2351442;57;21109;-80
2022/01/09 03:40:20;;;;;;;13.15;5.65;;;;;;;;;;2351214;57;21129;-81
2022/01/09 03:42:47;;;;;;;6.85;4.65;;;;;;;;;;2351101;57;21054;-80
2022/01/09 03:45:15;;;;;;;9.15;5.43;;;;;;;;;;2374994;53;21110;-79
2022/01/09 03:47:42;;;;;;;11.68;5.00;;;;;;;;;;2351287;55;21133;-80
2022/01/09 03:50:11;;;;;;;10.07;5.22;;;;;;;;;;2350875;57;21061;-82
2022/01/09 03:52:39;;;;;;;8.07;4.53;;;;;;;;;;2351650;57;21117;-82
2022/01/09 03:55:08;;;;;;;9.30;5.43;;;;;;;;;;2351452;57;21170;-81
2022/01/09 03:57:35;;;;;;;8.52;5.05;;;;;;;;;;2364520;53;21101;-81
2022/01/09 04:00:03;;;;;;;8.43;4.93;;;;;;;;;;2350652;57;21133;-82
2022/01/09 04:02:30;;;;;;;9.02;4.82;;;;;;;;;;2350983;57;21634;-82
2022/01/09 04:04:57;;;;;;;10.07;4.85;;;;;;;;;;2350618;57;21050;-82
2022/01/09 04:07:24;;;;;;;7.47;4.53;;;;;;;;;;2350650;57;21101;-80
2022/01/09 04:09:51;;;;;;;7.65;5.03;;;;;;;;;;2350094;57;21054;-81
2022/01/09 04:12:18;;;;;;;14.43;5.43;;;;;;;;;;2350630;57;21045;-81
2022/01/09 04:14:47;;;;;;;10.60;5.12;;;;;;;;;;2353499;53;21558;-82
2022/01/09 04:17:20;;;;;;;8.32;4.32;;;;;;;;;;2355538;53;21066;-81
2022/01/09 04:19:47;;;;;;;;;;;;;;;;;;2354444;57;21066;-82
2022/01/09 04:22:14;;;;;;;6.70;4.32;;;;;;;;;;2351431;57;20106;-81
2022/01/09 04:24:41;;;;;;;9.25;4.68;;;;;;;;;;2352056;53;21134;-80
2022/01/09 04:27:08;;;;;;;9.30;5.40;;;;;;;;;;2363585;53;21122;-80
2022/01/09 04:29:35;;;;;;;10.77;4.68;;;;;;;;;;2350378;57;21066;-82
2022/01/09 04:32:01;;;;;;;8.43;4.72;;;;;;;;;;2350676;57;21070;-81
2022/01/09 04:34:28;;;;;;;9.40;4.93;;;;;;;;;;2363174;53;21130;-83
2022/01/09 04:36:59;;;;;;;9.15;5.10;;;;;;;;;;2352673;53;21558;-81
2022/01/09 04:39:26;;;;;;;6.65;4.25;;;;;;;;;;2351289;57;21034;-81
2022/01/09 04:41:54;;;;;;;8.35;4.90;;;;;;;;;;2356078;53;21066;-81
2022/01/09 04:44:21;;;;;;;9.95;4.80;;;;;;;;;;2350746;57;21054;-81
2022/01/09 04:46:54;;;;;;;7.15;4.82;;;;;;;;;;2355792;52;21144;-81
2022/01/09 04:49:25;;;;;;;10.02;5.10;;;;;;;;;;2350457;57;21117;-80
2022/01/09 04:51:52;;;;;;;8.05;5.25;;;;;;;;;;2351053;57;21105;-79
2022/01/09 04:54:19;;;;;;;8.60;4.85;;;;;;;;;;2351298;57;21153;-81
2022/01/09 04:56:46;;;;;;;9.60;5.45;;;;;;;;;;2351223;57;21043;-79
2022/01/09 04:59:13;;;;;;;9.02;5.32;;;;;;;;;;2351130;57;21645;-81
2022/01/09 05:01:40;;;;;;;8.45;5.45;;;;;;;;;;2351032;57;21645;-79
2022/01/09 05:04:07;;;;;;;10.57;6.20;;;;;;;;;;2353665;53;21120;-80
2022/01/09 05:06:34;;;;;;;8.93;5.20;;;;;;;;;;2364088;53;21066;-81
2022/01/09 05:09:01;;;;;;;11.73;5.53;;;;;;;;;;2351049;57;21054;-80
2022/01/09 05:11:28;;;;;;;10.35;6.15;;;;;;;;;;2351411;57;21057;-80
2022/01/09 05:13:55;;;;;;;10.02;5.30;;;;;;;;;;2351186;57;21153;-80
2022/01/09 05:16:22;;;;;;;8.80;4.80;;;;;;;;;;2350953;57;21077;-81
2022/01/09 05:18:54;;;;;;;6.90;4.97;;;;;;;;;;2350882;57;21216;-80
2022/01/09 05:21:21;;;;;;;9.50;5.90;;;;;;;;;;2351364;54;21062;-81
2022/01/09 05:23:49;;;;;;;9.65;5.87;;;;;;;;;;2351205;57;21117;-81
2022/01/09 05:26:16;;;;;;;9.23;5.53;;;;;;;;;;2355416;53;21177;-80
2022/01/09 05:28:43;;;;;;;10.93;6.50;;;;;;;;;;2350760;57;21125;-80
2022/01/09 05:31:10;;;;;;;11.27;6.45;;;;;;;;;;2362145;53;21138;-81
2022/01/09 05:33:37;;;;;;;10.18;6.30;;;;;;;;;;2364116;53;21605;-81
2022/01/09 05:36:04;;;;;;;9.20;5.97;;;;;;;;;;2350638;57;22023;-81
2022/01/09 05:38:32;;;;;;;11.82;6.05;;;;;;;;;;2376023;53;21043;-81
2022/01/09 05:40:59;;;;;;;9.55;6.25;;;;;;;;;;2351371;57;21046;-80
2022/01/09 05:43:26;;;;;;;14.87;6.35;;;;;;;;;;2391365;53;21054;-80
2022/01/09 05:45:53;;;;;;;14.30;6.43;;;;;;;;;;2371549;53;21070;-78
2022/01/09 05:48:20;;;;;;;8.63;5.75;;;;;;;;;;2357827;57;21071;-79
2022/01/09 05:50:47;;;;;;;12.93;6.43;;;;;;;;;;2357479;57;21024;-79
2022/01/09 05:53:14;;;;;;;11.73;6.07;;;;;;;;;;2358849;57;21068;-79
2022/01/09 05:55:41;;;;;;;11.68;6.43;;;;;;;;;;2608905;52;21115;-79
2022/01/09 05:58:08;;;;;;;10.38;6.30;;;;;;;;;;2642992;52;21002;-80
2022/01/09 06:00:35;;;;;;;10.52;6.65;;;;;;;;;;2386007;56;21006;-79
2022/01/09 06:03:02;;;;;;;11.80;7.00;;;;;;;;;;2642716;52;21015;-80
2022/01/09 06:05:29;;;;;;;13.68;6.70;;;;;;;;;;2642756;52;21069;-79
2022/01/09 06:07:55;;;;;;;11.95;7.05;;;;;;;;;;2386072;56;21646;-80
2022/01/09 06:10:22;;;;;;;11.93;6.60;;;;;;;;;;2642256;52;21030;-79
2022/01/09 06:12:49;;;;;;;12.52;7.47;;;;;;;;;;2643202;52;21141;-79
2022/01/09 06:15:17;;;;;;;12.70;6.20;;;;;;;;;;2387104;56;21022;-80
2022/01/09 06:17:44;;;;;;;12.65;7.10;;;;;;;;;;2386536;56;21157;-81
2022/01/09 06:20:13;;;;;;;14.30;8.43;;;;;;;;;;2387375;56;21015;-80
2022/01/09 06:22:40;;;;;;;13.27;7.57;;;;;;;;;;2386953;56;21070;-81
2022/01/09 06:25:08;;;;;;;9.50;6.00;;;;;;;;;;2643191;52;20995;-80
2022/01/09 06:27:35;;;;;;;12.80;7.47;;;;;;;;;;2387211;56;21057;-79
2022/01/09 06:30:03;;;;;;;13.98;6.87;;;;;;;;;;2643480;52;21038;-80
2022/01/09 06:32:31;;;;;;;14.20;7.25;;;;;;;;;;2387797;56;21034;-80
2022/01/09 06:34:58;;;;;;;13.02;7.50;;;;;;;;;;2387364;56;21034;-80
2022/01/09 06:37:24;;;;;;;10.98;7.03;;;;;;;;;;2387191;56;21613;-80
2022/01/09 06:39:51;;;;;;;12.95;7.15;;;;;;;;;;2387156;56;21022;-79
2022/01/09 06:42:18;;;;;;;10.77;6.62;;;;;;;;;;2643641;52;21062;-81
2022/01/09 06:44:45;;;;;;;9.70;6.53;;;;;;;;;;2643813;52;21013;-80
2022/01/09 06:47:12;;;;;;;14.40;7.43;;;;;;;;;;2387272;56;21308;-80
2022/01/09 06:49:39;;;;;;;14.43;8.02;;;;;;;;;;2387718;56;21106;-80
2022/01/09 06:52:07;;;;;;;12.77;7.10;;;;;;;;;;2387962;56;21050;-80
2022/01/09 06:54:34;;;;;;;11.02;7.68;;;;;;;;;;2388134;56;21034;-79
2022/01/09 06:57:01;;;;;;;10.05;6.60;;;;;;;;;;2644627;51;21126;-79
2022/01/09 06:59:28;;;;;;;13.85;7.87;;;;;;;;;;2643995;52;21106;-80
2022/01/09 07:01:55;;;;;;;11.50;6.78;;;;;;;;;;2387905;56;21050;-80
2022/01/09 07:04:21;;;;;;;13.00;7.05;;;;;;;;;;2387352;56;21034;-81
2022/01/09 07:06:49;;;;;;;9.63;6.30;;;;;;;;;;2386217;56;21041;-81
2022/01/09 07:09:16;;;;;;;9.68;7.07;;;;;;;;;;2387097;56;21018;-80
2022/01/09 07:11:43;;;;;;;11.32;7.70;;;;;;;;;;2387868;56;21094;-80
2022/01/09 07:14:10;;;;;;;12.05;7.28;;;;;;;;;;2387968;56;21114;-80
2022/01/09 07:16:37;;;;;;;12.18;7.43;;;;;;;;;;2644105;51;21022;-80
2022/01/09 07:19:04;;;;;;;11.10;6.40;;;;;;;;;;2644012;52;21138;-80
2022/01/09 07:21:31;;;;;;;15.38;7.45;;;;;;;;;;2644079;52;21030;-81
2022/01/09 07:23:58;;;;;;;10.40;6.80;;;;;;;;;;2388003;56;21074;-79
2022/01/09 07:26:25;;;;;;;10.77;6.47;;;;;;;;;;2388005;56;21003;-81
2022/01/09 07:28:52;;;;;;;10.23;6.53;;;;;;;;;;2388124;56;21057;-80
2022/01/09 07:31:19;;;;;;;13.43;7.15;;;;;;;;;;2644159;52;21047;-81
2022/01/09 07:33:46;;;;;;;11.60;7.28;;;;;;;;;;2643828;52;21024;-81
2022/01/09 07:36:15;;;;;;;13.82;7.47;;;;;;;;;;2644296;51;21116;-80
2022/01/09 07:38:42;;;;;;;10.35;6.62;;;;;;;;;;2387322;56;21007;-80
2022/01/09 07:41:12;;;;;;;14.40;8.18;;;;;;;;;;2644182;52;21654;-80
2022/01/09 07:43:39;;;;;;;10.25;6.60;;;;;;;;;;2643739;52;21121;-81
2022/01/09 07:46:06;;;;;;;13.65;7.30;;;;;;;;;;2387208;56;21002;-80
2022/01/09 07:48:33;;;;;;;10.10;6.90;;;;;;;;;;2387363;56;21023;-80
2022/01/09 07:51:00;;;;;;;16.77;7.65;;;;;;;;;;2387319;56;21014;-80
2022/01/09 07:53:27;;;;;;;9.50;6.90;;;;;;;;;;2644022;52;21015;-81
2022/01/09 07:55:54;;;;;;;10.10;6.53;;;;;;;;;;2387289;56;21638;-80
2022/01/09 07:58:21;;;;;;;12.65;7.00;;;;;;;;;;2643738;52;21118;-81
2022/01/09 08:00:49;;;;;;;14.65;7.10;;;;;;;;;;2387786;56;21125;-80
2022/01/09 08:03:16;;;;;;;11.63;7.68;;;;;;;;;;2387730;56;21069;-80
2022/01/09 08:05:43;;;;;;;11.60;7.07;;;;;;;;;;2643960;51;21054;-81
2022/01/09 08:08:10;;;;;;;13.82;7.25;;;;;;;;;;2643740;52;21027;-80
2022/01/09 08:10:37;;;;;;;15.55;7.40;;;;;;;;;;2644113;52;21007;-80
2022/01/09 08:13:04;;;;;;;11.65;6.62;;;;;;;;;;2387559;56;21035;-80
2022/01/09 08:15:31;;;;;;;12.95;7.70;;;;;;;;;;2387924;56;21105;-80
2022/01/09 08:17:58;;;;;;;13.68;7.25;;;;;;;;;;2387594;56;21014;-80
2022/01/09 08:20:25;;;;;;;10.90;6.68;;;;;;;;;;2643593;52;21081;-80
2022/01/09 08:22:52;;;;;;;12.70;7.32;;;;;;;;;;2387835;56;21650;-80
2022/01/09 08:25:19;;;;;;;11.02;7.28;;;;;;;;;;2643910;52;21015;-81
2022/01/09 08:27:47;;;;;;;11.25;7.05;;;;;;;;;;2387502;56;21018;-80
2022/01/09 08:30:14;;;;;;;12.68;8.45;;;;;;;;;;2387643;56;21086;-81
2022/01/09 08:32:41;;;;;;;10.35;7.12;;;;;;;;;;2388258;56;21022;-81
2022/01/09 08:35:09;;;;;;;11.43;7.45;;;;;;;;;;2644511;52;21011;-80
2022/01/09 08:37:36;;;;;;;9.13;6.00;;;;;;;;;;2387900;56;21574;-81
2022/01/09 08:40:04;;;;;;;12.32;7.75;;;;;;;;;;2387805;56;21015;-82
2022/01/09 08:42:31;;;;;;;10.07;7.05;;;;;;;;;;2387945;56;21106;-80
2022/01/09 08:44:57;;;;;;;11.02;6.95;;;;;;;;;;2387756;56;21009;-81
2022/01/09 08:47:24;;;;;;;13.00;7.40;;;;;;;;;;2387970;56;21026;-80
2022/01/09 08:49:51;;;;;;;11.50;7.10;;;;;;;;;;2387727;56;21061;-81
2022/01/09 08:52:18;;;;;;;9.93;6.78;;;;;;;;;;2387647;56;21049;-80
2022/01/09 08:54:45;;;;;;;9.90;7.18;;;;;;;;;;2387549;56;21018;-79
2022/01/09 08:57:12;;;;;;;10.38;7.37;;;;;;;;;;2644151;51;21049;-80
2022/01/09 08:59:39;;;;;;;11.18;7.25;;;;;;;;;;2387739;56;21066;-80
2022/01/09 09:02:06;;;;;;;9.85;7.07;;;;;;;;;;2644206;52;20999;-81
2022/01/09 09:04:33;;;;;;;9.57;6.80;;;;;;;;;;2387414;56;21010;-82
2022/01/09 09:07:00;;;;;;;10.48;6.95;;;;;;;;;;2644527;51;21490;-79
2022/01/09 09:09:27;;;;;;;11.82;7.93;;;;;;;;;;2386834;56;22197;-80
2022/01/09 09:11:54;;;;;;;10.77;7.35;;;;;;;;;;2387842;56;21522;-80
2022/01/09 09:14:22;;;;;;;9.10;6.40;;;;;;;;;;2387187;56;21494;-82
2022/01/09 09:16:49;;;;;;;12.23;8.05;;;;;;;;;;2387426;56;21570;-80
2022/01/09 09:19:16;;;;;;;10.75;6.50;;;;;;;;;;2387636;56;21027;-81
2022/01/09 09:21:43;;;;;;;12.10;7.87;;;;;;;;;;2644186;52;21522;-79
2022/01/09 09:24:10;;;;;;;14.80;8.60;;;;;;;;;;2388004;56;21105;-81
2022/01/09 09:26:37;;;;;;;8.65;6.57;;;;;;;;;;2387964;56;21022;-80
2022/01/09 09:29:05;;;;;;;11.25;7.22;;;;;;;;;;2643484;52;21058;-82
2022/01/09 09:31:32;;;;;;;13.62;8.27;;;;;;;;;;2643742;52;21077;-79
2022/01/09 09:33:59;;;;;;;13.60;8.57;;;;;;;;;;2643302;52;21022;-79
2022/01/09 09:36:26;;;;;;;10.45;7.82;;;;;;;;;;2386834;56;21015;-79
2022/01/09 09:38:53;;;;;;;11.68;8.38;;;;;;;;;;2386979;56;21105;-80
2022/01/09 09:41:23;;;;;;;11.80;8.40;;;;;;;;;;2642907;52;21011;-79
2022/01/09 09:43:50;;;;;;;12.15;7.87;;;;;;;;;;2387000;56;21534;-79
2022/01/09 09:46:17;;;;;;;12.20;7.50;;;;;;;;;;2386598;56;21661;-79
2022/01/09 09:48:45;;;;;;;12.55;8.57;;;;;;;;;;2386430;56;21113;-80
2022/01/09 09:51:11;;;;;;;12.23;7.82;;;;;;;;;;2388127;56;21026;-80
2022/01/09 09:53:38;;;;;;;46.28;12.20;;;;;;;;;;2644318;52;21058;-82
2022/01/09 09:56:06;;;;;;;14.98;8.93;;;;;;;;;;2387949;56;21019;-80
2022/01/09 09:58:33;;;;;;;11.93;8.23;;;;;;;;;;2643628;52;21026;-81
2022/01/09 10:01:00;;;;;;;12.15;8.40;;;;;;;;;;2387608;56;21019;-81
2022/01/09 10:03:30;;;;;;;13.80;8.93;;;;;;;;;;2643744;52;21090;-81
2022/01/09 10:05:58;;;;;;;11.18;7.70;;;;;;;;;;2644138;51;21058;-80
2022/01/09 10:08:34;;;;;;;13.32;8.55;;;;;;;;;;2387866;56;21296;-80
2022/01/09 10:11:11;;;;;;;15.45;8.23;;;;;;;;;;2387685;56;21706;-80
2022/01/09 10:13:38;;;;;;;12.02;8.35;;;;;;;;;;2388053;56;21022;-81
2022/01/09 10:16:06;;;;;;;13.27;8.07;;;;;;;;;;2388024;56;21026;-82
2022/01/09 10:18:40;;;;;;;11.75;8.07;;;;;;;;;;2388056;56;21015;-81
2022/01/09 10:21:07;;;;;;;10.65;8.00;;;;;;;;;;2387922;56;22226;-82
2022/01/09 10:23:34;;;;;;;11.75;7.90;;;;;;;;;;2387936;56;21026;-82
2022/01/09 10:26:10;;;;;;;14.18;8.80;;;;;;;;;;2644353;51;21022;-82
2022/01/09 10:28:38;;;;;;;12.10;8.52;;;;;;;;;;2644568;52;21099;-81
2022/01/09 10:31:14;;;;;;;11.40;8.05;;;;;;;;;;2644298;52;21597;-81
2022/01/09 10:33:41;;;;;;;10.98;8.30;;;;;;;;;;2387755;56;21038;-80
2022/01/09 10:36:09;;;;;;;11.52;7.95;;;;;;;;;;2387406;56;21077;-80
2022/01/09 10:38:36;;;;;;;12.02;8.07;;;;;;;;;;2387762;56;21003;-79
2022/01/09 10:41:04;;;;;;;11.75;7.53;;;;;;;;;;2387363;56;21065;-81
2022/01/09 10:43:34;;;;;;;9.93;7.62;;;;;;;;;;2386940;56;21128;-82
2022/01/09 10:46:02;;;;;;;9.23;6.78;;;;;;;;;;2643118;51;21113;-80
2022/01/09 10:48:35;;;;;;;9.95;7.47;;;;;;;;;;2643754;52;21011;-79
2022/01/09 10:51:03;;;;;;;9.82;7.68;;;;;;;;;;2387740;56;21035;-81
2022/01/09 10:53:31;;;;;;;11.02;7.37;;;;;;;;;;2643373;52;21026;-81
2022/01/09 10:56:02;;;;;;;9.82;6.62;;;;;;;;;;2643635;51;21073;-80
2022/01/09 10:58:29;;;;;;;9.80;6.75;;;;;;;;;;2643232;52;21026;-80
2022/01/09 11:01:27;;;;;;;11.07;7.75;;;;;;;;;;2387371;56;21030;-79
2022/01/09 11:03:56;;;;;;;10.40;7.07;;;;;;;;;;2348180;56;21628;-76
2022/01/09 11:06:23;;;;;;;9.13;6.65;;;;;;;;;;2386013;56;21023;-76
2022/01/09 11:08:51;;;;;;;10.02;6.45;;;;;;;;;;2386326;56;21049;-77
2022/01/09 11:11:24;;;;;;;9.77;7.22;;;;;;;;;;2386551;56;21089;-76
2022/01/09 11:13:52;;;;;;;;;;;;;;;;;;2646871;52;21377;-76
2022/01/09 11:16:37;;;;;;;9.98;7.15;;;;;;;;;;2386645;56;20139;-77
2022/01/09 11:19:11;;;;;;;9.82;7.60;;;;;;;;;;2386527;56;21518;-78
2022/01/09 11:21:40;;;;;;;9.45;7.03;;;;;;;;;;2386683;56;21022;-76
2022/01/09 11:24:14;;;;;;;10.52;7.50;;;;;;;;;;2386872;56;21082;-76
2022/01/09 11:26:47;;;;;;;11.52;8.07;;;;;;;;;;2642458;52;21014;-76
2022/01/09 11:29:16;;;;;;;9.50;7.72;;;;;;;;;;2386186;56;21034;-76
2022/01/09 11:31:46;;;;;;;11.45;7.43;;;;;;;;;;2386576;56;21025;-78
2022/01/09 11:34:17;;;;;;;11.63;7.80;;;;;;;;;;2643223;52;21007;-76
2022/01/09 11:36:52;;;;;;;10.45;7.68;;;;;;;;;;2386638;56;21021;-77
2022/01/09 11:39:23;;;;;;;10.00;7.57;;;;;;;;;;2386015;56;21086;-76
2022/01/09 11:42:05;;;;;;;9.98;7.68;;;;;;;;;;2386740;56;21022;-76
2022/01/09 11:44:33;;;;;;;9.00;6.70;;;;;;;;;;2386641;56;21010;-77
2022/01/09 11:47:01;;;;;;;12.32;8.20;;;;;;;;;;2475683;52;69534;-74
2022/01/09 11:49:29;;;;;;;8.80;7.32;;;;;;;;;;2390197;56;21540;-75
2022/01/09 11:51:57;;;;;;;16.50;13.65;;;;;;;;;;2390643;56;21084;-75
2022/01/09 11:54:25;;;;;;;10.23;8.55;;;;;;;;;;2646994;52;21023;-74
2022/01/09 11:56:53;;;;;;;10.35;8.35;;;;;;;;;;2388604;56;21073;-74
2022/01/09 11:59:22;;;;;;;11.65;8.60;;;;;;;;;;2388903;56;21532;-75
2022/01/09 12:01:50;;;;;;;11.00;7.97;;;;;;;;;;2646245;52;21078;-75
2022/01/09 12:04:35;;;;;;;10.38;8.55;;;;;;;;;;2389106;56;21046;-75
2022/01/09 12:07:04;;;;;;;10.27;7.20;;;;;;;;;;2389456;56;21034;-74
2022/01/09 12:09:34;;;;;;;10.57;8.40;;;;;;;;;;2646231;51;21626;-76
2022/01/09 12:12:17;;;;;;;9.68;7.82;;;;;;;;;;2389106;56;21042;-75
2022/01/09 12:14:54;;;;;;;10.30;8.20;;;;;;;;;;2646378;52;21030;-75
2022/01/09 12:17:39;;;;;;;12.93;9.73;;;;;;;;;;2388917;56;21945;-75
2022/01/09 12:20:07;;;;;;;10.98;8.20;;;;;;;;;;2388941;56;21595;-75
2022/01/09 12:23:01;;;;;;;10.48;8.10;;;;;;;;;;2389162;56;21540;-76
2022/01/09 12:25:59;;;;;;;11.68;7.75;;;;;;;;;;2389715;56;21037;-74
2022/01/09 12:28:53;;;;;;;9.88;7.45;;;;;;;;;;2389356;56;21105;-75
2022/01/09 12:31:28;;;;;;;9.63;7.30;;;;;;;;;;2389971;56;21500;-75
2022/01/09 12:33:58;;;;;;;11.90;7.12;;;;;;;;;;2390106;56;22329;-74
2022/01/09 12:36:27;;;;;;;10.65;7.40;;;;;;;;;;2647807;52;21508;-75
2022/01/09 12:38:57;;;;;;;9.80;6.82;;;;;;;;;;2390173;56;21065;-74
2022/01/09 12:41:25;;;;;;;9.00;7.10;;;;;;;;;;2390730;56;21090;-74
2022/01/09 12:44:00;;;;;;;10.98;6.80;;;;;;;;;;2390430;56;21508;-74
2022/01/09 12:46:28;;;;;;;12.30;9.05;;;;;;;;;;2390564;56;21180;-76
2022/01/09 12:48:56;;;;;;;10.38;7.15;;;;;;;;;;2389876;56;21034;-75
2022/01/09 12:51:23;;;;;;;10.25;7.32;;;;;;;;;;2390349;56;21577;-76
2022/01/09 12:53:51;;;;;;;9.15;6.53;;;;;;;;;;2389051;56;21560;-75
2022/01/09 12:56:18;;;;;;;11.12;7.35;;;;;;;;;;2390059;56;21047;-74
2022/01/09 12:58:48;;;;;;;12.35;8.15;;;;;;;;;;2389844;56;21042;-76
2022/01/09 13:01:19;;;;;;;11.82;8.02;;;;;;;;;;2390350;56;21086;-74
2022/01/09 13:03:48;;;;;;;9.45;7.40;;;;;;;;;;2647496;52;21073;-75
2022/01/09 13:06:16;;;;;;;8.93;7.10;;;;;;;;;;2390420;56;22197;-75
2022/01/09 13:08:45;;;;;;;10.63;7.12;;;;;;;;;;2390231;56;21078;-75
2022/01/09 13:11:14;;;;;;;8.98;6.55;;;;;;;;;;2390224;56;21106;-75
2022/01/09 13:13:42;;;;;;;9.48;6.75;;;;;;;;;;2390108;56;21023;-76
2022/01/09 13:16:10;;;;;;;12.15;8.77;;;;;;;;;;2389996;56;21572;-76
2022/01/09 13:18:38;;;;;;;9.68;7.12;;;;;;;;;;2390149;56;21094;-75
2022/01/09 13:21:09;;;;;;;10.65;6.80;;;;;;;;;;2389925;56;21030;-76
2022/01/09 13:23:36;;;;;;;9.35;6.82;;;;;;;;;;2390489;56;21022;-74
2022/01/09 13:26:03;;;;;;;8.38;6.50;;;;;;;;;;2646913;52;21168;-76
2022/01/09 13:28:31;;;;;;;9.02;7.15;;;;;;;;;;2389776;56;21046;-76
2022/01/09 13:30:59;;;;;;;8.63;6.55;;;;;;;;;;2389936;56;21021;-75
2022/01/09 13:33:27;;;;;;;8.50;6.37;;;;;;;;;;2390400;56;21015;-75
2022/01/09 13:35:55;;;;;;;12.30;7.20;;;;;;;;;;2390459;56;21038;-75
2022/01/09 13:38:22;;;;;;;10.60;7.78;;;;;;;;;;2390499;56;21289;-76
2022/01/09 13:40:49;;;;;;;11.40;7.50;;;;;;;;;;2646875;51;21026;-75
2022/01/09 13:43:20;;;;;;;11.98;8.27;;;;;;;;;;2390663;56;21021;-75
2022/01/09 13:45:47;;;;;;;10.63;8.10;;;;;;;;;;2390160;56;21078;-74
2022/01/09 13:48:14;;;;;;;14.77;9.18;;;;;;;;;;2390249;56;21126;-75
2022/01/09 13:50:46;;;;;;;20.75;14.32;;;;;;;;;;2390057;56;21038;-76
2022/01/09 13:53:13;;;;;;;14.80;10.48;;;;;;;;;;2390236;56;21046;-76
2022/01/09 13:55:41;;;;;;;13.15;9.80;;;;;;;;;;2390073;56;21145;-76
2022/01/09 13:58:09;;;;;;;11.00;8.27;;;;;;;;;;2390122;56;21038;-76
2022/01/09 14:00:37;;;;;;;11.45;8.20;;;;;;;;;;2389716;56;21497;-76
2022/01/09 14:03:05;;;;;;;10.57;7.53;;;;;;;;;;2389933;56;21018;-75
2022/01/09 14:05:36;;;;;;;13.30;8.35;;;;;;;;;;2390692;56;21008;-76
2022/01/09 14:08:03;;;;;;;14.23;9.05;;;;;;;;;;2647572;52;21077;-76
2022/01/09 14:10:34;;;;;;;11.80;8.88;;;;;;;;;;2646767;51;21180;-76
2022/01/09 14:13:01;;;;;;;13.52;8.80;;;;;;;;;;2647565;52;21500;-76
2022/01/09 14:15:29;;;;;;;13.18;9.05;;;;;;;;;;2390555;56;22221;-77
2022/01/09 14:17:56;;;;;;;11.70;8.20;;;;;;;;;;2389682;56;21098;-77
2022/01/09 14:20:24;;;;;;;12.20;8.88;;;;;;;;;;2389020;56;21022;-76
2022/01/09 14:22:52;;;;;;;15.13;10.85;;;;;;;;;;2388458;56;21030;-76
2022/01/09 14:25:25;;;;;;;15.40;9.93;;;;;;;;;;2390498;56;21097;-76
2022/01/09 14:27:52;;;;;;;15.23;10.95;;;;;;;;;;2390745;56;21014;-77
2022/01/09 14:30:24;;;;;;;13.73;10.20;;;;;;;;;;2390162;56;21023;-77
2022/01/09 14:33:05;;;;;;;13.90;10.10;;;;;;;;;;2648112;52;21057;-78
2022/01/09 14:35:35;;;;;;;14.50;9.82;;;;;;;;;;2650075;52;21081;-80
2022/01/09 14:38:02;;;;;;;13.90;9.23;;;;;;;;;;2392037;56;21010;-79
2022/01/09 14:40:30;;;;;;;14.87;10.10;;;;;;;;;;2648620;51;21163;-82
2022/01/09 14:42:57;;;;;;;14.20;10.57;;;;;;;;;;2391543;56;21451;-79